sensor_id;sensor_type;location;lat;lon;timestamp;pressure;altitude;pressure_sealevel;temperature;humidity
16030;BME280;34770;49.272;11.070;2022-12-16T00:02:12;96469.41;;;-2.82;100.00
16030;BME280;34770;49.272;11.070;2022-12-16T00:04:37;96485.38;;;-2.75;100.00
16030;BME280;34770;49.272;11.070;2022-12-16T00:07:02;96481.25;;;-2.73;100.00
16030;BME280;34770;49.272;11.070;2022-12-16T00:09:28;96481.31;;;-2.78;100.00
16030;BME280;34770;49.272;11.070;2022-12-16T00:11:53;96491.59;;;-2.89;100.00
16030;BME280;34770;49.272;11.070;2022-12-16T00:14:18;96488.28;;;-2.85;100.00
16030;BME280;34770;49.272;11.070;2022-12-16T00:16:44;96480.50;;;-2.92;100.00
16030;BME280;34770;49.272;11.070;2022-12-16T00:19:09;96490.63;;;-2.79;100.00
16030;BME280;34770;49.272;11.070;2022-12-16T00:21:34;96481.94;;;-2.81;100.00
16030;BME280;34770;49.272;11.070;2022-12-16T00:24:00;96477.84;;;-2.97;100.00
16030;BME280;34770;49.272;11.070;2022-12-16T00:26:26;96492.41;;;-2.88;100.00
16030;BME280;34770;49.272;11.070;2022-12-16T00:28:51;96494.50;;;-2.85;100.00
16030;BME280;34770;49.272;11.070;2022-12-16T00:31:16;96452.72;;;-3.08;100.00
16030;BME280;34770;49.272;11.070;2022-12-16T00:33:42;96469.63;;;-2.92;100.00
16030;BME280;34770;49.272;11.070;2022-12-16T00:36:08;96485.34;;;-2.89;100.00
16030;BME280;34770;49.272;11.070;2022-12-16T00:38:33;96486.34;;;-2.85;100.00
16030;BME280;34770;49.272;11.070;2022-12-16T00:40:59;96489.69;;;-2.88;100.00
16030;BME280;34770;49.272;11.070;2022-12-16T00:43:25;96489.59;;;-2.83;100.00
16030;BME280;34770;49.272;11.070;2022-12-16T00:45:50;96472.94;;;-2.95;100.00
16030;BME280;34770;49.272;11.070;2022-12-16T00:48:16;96491.59;;;-2.89;100.00
16030;BME280;34770;49.272;11.070;2022-12-16T00:50:52;96493.81;;;-2.91;100.00
16030;BME280;34770;49.272;11.070;2022-12-16T00:53:19;96492.19;;;-2.92;100.00
16030;BME280;34770;49.272;11.070;2022-12-16T00:55:45;96491.78;;;-2.85;100.00
16030;BME280;34770;49.272;11.070;2022-12-16T00:58:11;96488.56;;;-2.87;100.00
16030;BME280;34770;49.272;11.070;2022-12-16T01:00:37;96493.59;;;-2.94;100.00
16030;BME280;34770;49.272;11.070;2022-12-16T01:03:03;96456.44;;;-3.18;100.00
16030;BME280;34770;49.272;11.070;2022-12-16T01:05:28;96497.00;;;-3.02;100.00
16030;BME280;34770;49.272;11.070;2022-12-16T01:07:54;96498.84;;;-2.98;100.00
16030;BME280;34770;49.272;11.070;2022-12-16T01:10:20;96499.72;;;-3.02;100.00
16030;BME280;34770;49.272;11.070;2022-12-16T01:12:45;96494.81;;;-3.00;100.00
16030;BME280;34770;49.272;11.070;2022-12-16T01:15:11;96490.38;;;-2.96;100.00
16030;BME280;34770;49.272;11.070;2022-12-16T01:17:38;96472.59;;;-3.08;100.00
16030;BME280;34770;49.272;11.070;2022-12-16T01:20:04;96492.66;;;-3.03;100.00
16030;BME280;34770;49.272;11.070;2022-12-16T01:22:31;96500.25;;;-3.00;100.00
16030;BME280;34770;49.272;11.070;2022-12-16T01:24:57;96494.81;;;-3.00;100.00
16030;BME280;34770;49.272;11.070;2022-12-16T01:27:23;96489.94;;;-3.03;100.00
16030;BME280;34770;49.272;11.070;2022-12-16T01:29:50;96486.69;;;-3.06;100.00
16030;BME280;34770;49.272;11.070;2022-12-16T01:32:16;96500.16;;;-2.95;100.00
16030;BME280;34770;49.272;11.070;2022-12-16T01:34:42;96495.81;;;-2.96;100.00
16030;BME280;34770;49.272;11.070;2022-12-16T01:37:11;96492.16;;;-3.06;100.00
16030;BME280;34770;49.272;11.070;2022-12-16T01:39:36;96500.84;;;-3.03;100.00
16030;BME280;34770;49.272;11.070;2022-12-16T01:42:02;96479.53;;;-3.15;100.00
16030;BME280;34770;49.272;11.070;2022-12-16T01:44:27;96498.53;;;-2.96;100.00
16030;BME280;34770;49.272;11.070;2022-12-16T01:47:02;96489.72;;;-3.07;100.00
16030;BME280;34770;49.272;11.070;2022-12-16T01:49:39;96484.28;;;-3.07;100.00
16030;BME280;34770;49.272;11.070;2022-12-16T01:52:10;96470.56;;;-3.16;100.00
16030;BME280;34770;49.272;11.070;2022-12-16T01:54:44;96498.94;;;-3.03;100.00
16030;BME280;34770;49.272;11.070;2022-12-16T01:57:16;96494.81;;;-3.00;100.00
16030;BME280;34770;49.272;11.070;2022-12-16T01:59:43;96504.06;;;-3.01;100.00
16030;BME280;34770;49.272;11.070;2022-12-16T02:02:11;96494.19;;;-2.97;100.00
16030;BME280;34770;49.272;11.070;2022-12-16T02:04:37;96499.81;;;-3.08;100.00
16030;BME280;34770;49.272;11.070;2022-12-16T02:07:21;96499.81;;;-3.08;100.00
16030;BME280;34770;49.272;11.070;2022-12-16T02:09:47;96493.78;;;-3.05;100.00
16030;BME280;34770;49.272;11.070;2022-12-16T02:12:19;96494.16;;;-3.11;100.00
16030;BME280;34770;49.272;11.070;2022-12-16T02:20:35;96497.09;;;-3.08;100.00
16030;BME280;34770;49.272;11.070;2022-12-16T02:23:59;96490.56;;;-3.07;100.00
16030;BME280;34770;49.272;11.070;2022-12-16T02:29:30;96515.53;;;-3.05;100.00
16030;BME280;34770;49.272;11.070;2022-12-16T02:32:10;96516.16;;;-3.08;100.00
16030;BME280;34770;49.272;11.070;2022-12-16T02:37:42;96512.41;;;-3.12;100.00
16030;BME280;34770;49.272;11.070;2022-12-16T02:40:26;96519.47;;;-3.11;100.00
16030;BME280;34770;49.272;11.070;2022-12-16T02:42:58;96519.03;;;-3.18;100.00
16030;BME280;34770;49.272;11.070;2022-12-16T02:45:27;96528.16;;;-3.09;100.00
16030;BME280;34770;49.272;11.070;2022-12-16T02:47:54;96512.88;;;-3.24;100.00
16030;BME280;34770;49.272;11.070;2022-12-16T02:50:22;96527.63;;;-3.11;100.00
16030;BME280;34770;49.272;11.070;2022-12-16T02:52:50;96526.22;;;-3.08;100.00
16030;BME280;34770;49.272;11.070;2022-12-16T02:55:17;96520.78;;;-3.08;100.00
16030;BME280;34770;49.272;11.070;2022-12-16T03:00:28;96549.19;;;-3.14;100.00
16030;BME280;34770;49.272;11.070;2022-12-16T03:03:02;96538.22;;;-3.09;100.00
16030;BME280;34770;49.272;11.070;2022-12-16T03:05:34;96550.13;;;-3.05;100.00
16030;BME280;34770;49.272;11.070;2022-12-16T03:08:04;96549.31;;;-3.06;100.00
16030;BME280;34770;49.272;11.070;2022-12-16T03:10:36;96535.88;;;-3.16;100.00
16030;BME280;34770;49.272;11.070;2022-12-16T03:13:04;96508.59;;;-3.30;100.00
16030;BME280;34770;49.272;11.070;2022-12-16T03:15:32;96546.16;;;-3.13;100.00
16030;BME280;34770;49.272;11.070;2022-12-16T03:18:00;96554.94;;;-3.16;100.00
16030;BME280;34770;49.272;11.070;2022-12-16T03:20:32;96554.72;;;-3.19;100.00
16030;BME280;34770;49.272;11.070;2022-12-16T03:23:01;96557.66;;;-3.16;100.00
16030;BME280;34770;49.272;11.070;2022-12-16T03:25:29;96540.50;;;-3.16;100.00
16030;BME280;34770;49.272;11.070;2022-12-16T03:28:05;96542.44;;;-3.17;100.00
16030;BME280;34770;49.272;11.070;2022-12-16T03:30:39;96560.28;;;-3.11;100.00
16030;BME280;34770;49.272;11.070;2022-12-16T03:33:18;96559.78;;;-3.13;100.00
16030;BME280;34770;49.272;11.070;2022-12-16T03:35:54;96543.72;;;-3.28;100.00
16030;BME280;34770;49.272;11.070;2022-12-16T03:38:21;96543.75;;;-3.14;100.00
16030;BME280;34770;49.272;11.070;2022-12-16T03:40:48;96548.19;;;-3.18;100.00
16030;BME280;34770;49.272;11.070;2022-12-16T03:43:15;96548.97;;;-3.18;100.00
16030;BME280;34770;49.272;11.070;2022-12-16T03:45:43;96559.84;;;-3.18;100.00
16030;BME280;34770;49.272;11.070;2022-12-16T03:48:12;96554.66;;;-3.33;100.00
16030;BME280;34770;49.272;11.070;2022-12-16T03:50:38;96536.34;;;-3.47;100.00
16030;BME280;34770;49.272;11.070;2022-12-16T03:53:05;96543.28;;;-3.35;100.00
16030;BME280;34770;49.272;11.070;2022-12-16T03:55:31;96550.03;;;-3.33;100.00
16030;BME280;34770;49.272;11.070;2022-12-16T03:57:57;96543.94;;;-3.44;100.00
16030;BME280;34770;49.272;11.070;2022-12-16T04:00:23;96552.00;;;-3.39;100.00
16030;BME280;34770;49.272;11.070;2022-12-16T04:02:49;96558.50;;;-3.34;100.00
16030;BME280;34770;49.272;11.070;2022-12-16T04:05:16;96551.66;;;-3.32;100.00
16030;BME280;34770;49.272;11.070;2022-12-16T04:07:41;96570.69;;;-3.32;100.00
16030;BME280;34770;49.272;11.070;2022-12-16T04:10:08;96560.47;;;-3.40;100.00
16030;BME280;34770;49.272;11.070;2022-12-16T04:12:33;96577.03;;;-3.37;100.00
16030;BME280;34770;49.272;11.070;2022-12-16T04:15:17;96582.97;;;-3.34;100.00
16030;BME280;34770;49.272;11.070;2022-12-16T04:18:04;96581.50;;;-3.27;100.00
16030;BME280;34770;49.272;11.070;2022-12-16T04:20:51;96586.16;;;-3.27;100.00
16030;BME280;34770;49.272;11.070;2022-12-16T04:23:45;96583.91;;;-3.25;100.00
16030;BME280;34770;49.272;11.070;2022-12-16T04:26:30;96587.16;;;-3.42;100.00
16030;BME280;34770;49.272;11.070;2022-12-16T04:29:16;96590.41;;;-3.40;100.00
16030;BME280;34770;49.272;11.070;2022-12-16T04:31:44;96589.81;;;-3.37;100.00
16030;BME280;34770;49.272;11.070;2022-12-16T04:34:10;96594.38;;;-3.32;100.00
16030;BME280;34770;49.272;11.070;2022-12-16T04:36:55;96598.63;;;-3.26;100.00
16030;BME280;34770;49.272;11.070;2022-12-16T04:39:39;96615.03;;;-3.31;100.00
16030;BME280;34770;49.272;11.070;2022-12-16T04:42:24;96603.19;;;-3.22;100.00
16030;BME280;34770;49.272;11.070;2022-12-16T04:45:08;96605.19;;;-3.27;100.00
16030;BME280;34770;49.272;11.070;2022-12-16T04:47:52;96615.03;;;-3.31;100.00
16030;BME280;34770;49.272;11.070;2022-12-16T04:50:37;96615.41;;;-3.38;100.00
16030;BME280;34770;49.272;11.070;2022-12-16T04:53:22;96609.06;;;-3.33;100.00
16030;BME280;34770;49.272;11.070;2022-12-16T04:56:06;96600.69;;;-3.37;100.00
16030;BME280;34770;49.272;11.070;2022-12-16T04:58:50;96618.84;;;-3.32;100.00
16030;BME280;34770;49.272;11.070;2022-12-16T05:01:34;96617.91;;;-3.42;100.00
16030;BME280;34770;49.272;11.070;2022-12-16T05:04:18;96630.00;;;-3.53;100.00
16030;BME280;34770;49.272;11.070;2022-12-16T05:07:02;96633.41;;;-3.42;100.00
16030;BME280;34770;49.272;11.070;2022-12-16T05:09:46;96638.06;;;-3.43;100.00
16030;BME280;34770;49.272;11.070;2022-12-16T05:12:29;96636.34;;;-3.39;100.00
16030;BME280;34770;49.272;11.070;2022-12-16T05:15:16;96617.75;;;-3.50;100.00
16030;BME280;34770;49.272;11.070;2022-12-16T05:18:14;96637.47;;;-3.40;100.00
16030;BME280;34770;49.272;11.070;2022-12-16T05:20:59;96640.84;;;-3.48;100.00
16030;BME280;34770;49.272;11.070;2022-12-16T05:23:44;96642.19;;;-3.45;100.00
16030;BME280;34770;49.272;11.070;2022-12-16T05:26:28;96636.97;;;-3.42;100.00
16030;BME280;34770;49.272;11.070;2022-12-16T05:29:12;96635.03;;;-3.41;100.00
16030;BME280;34770;49.272;11.070;2022-12-16T05:31:56;96635.03;;;-3.41;100.00
16030;BME280;34770;49.272;11.070;2022-12-16T05:34:40;96630.47;;;-3.46;100.00
16030;BME280;34770;49.272;11.070;2022-12-16T05:37:23;96632.31;;;-3.41;100.00
16030;BME280;34770;49.272;11.070;2022-12-16T05:40:09;96630.91;;;-3.39;100.00
16030;BME280;34770;49.272;11.070;2022-12-16T05:42:53;96634.81;;;-3.45;100.00
16030;BME280;34770;49.272;11.070;2022-12-16T05:45:38;96642.09;;;-3.40;100.00
16030;BME280;34770;49.272;11.070;2022-12-16T05:48:22;96650.03;;;-3.44;100.00
16030;BME280;34770;49.272;11.070;2022-12-16T05:51:06;96653.63;;;-3.48;100.00
16030;BME280;34770;49.272;11.070;2022-12-16T05:53:50;96667.69;;;-3.41;100.00
16030;BME280;34770;49.272;11.070;2022-12-16T05:56:34;96641.41;;;-3.51;100.00
16030;BME280;34770;49.272;11.070;2022-12-16T05:59:18;96675.06;;;-3.42;100.00
16030;BME280;34770;49.272;11.070;2022-12-16T06:02:02;96686.44;;;-3.40;100.00
16030;BME280;34770;49.272;11.070;2022-12-16T06:04:46;96694.81;;;-3.36;100.00
16030;BME280;34770;49.272;11.070;2022-12-16T06:07:30;96696.22;;;-3.39;100.00
16030;BME280;34770;49.272;11.070;2022-12-16T06:10:14;96704.69;;;-3.40;100.00
16030;BME280;34770;49.272;11.070;2022-12-16T06:12:58;96711.97;;;-3.35;100.00
16030;BME280;34770;49.272;11.070;2022-12-16T06:15:42;96714.72;;;-3.41;100.00
16030;BME280;34770;49.272;11.070;2022-12-16T06:18:25;96710.13;;;-3.40;100.00
16030;BME280;34770;49.272;11.070;2022-12-16T06:21:09;96701.91;;;-3.59;100.00
16030;BME280;34770;49.272;11.070;2022-12-16T06:23:53;96720.78;;;-3.44;100.00
16030;BME280;34770;49.272;11.070;2022-12-16T06:26:37;96701.84;;;-3.54;100.00
16030;BME280;34770;49.272;11.070;2022-12-16T06:29:21;96719.38;;;-3.41;100.00
16030;BME280;34770;49.272;11.070;2022-12-16T06:32:05;96720.25;;;-3.46;100.00
16030;BME280;34770;49.272;11.070;2022-12-16T06:34:49;96728.53;;;-3.32;100.00
16030;BME280;34770;49.272;11.070;2022-12-16T06:37:33;96730.03;;;-3.45;100.00
16030;BME280;34770;49.272;11.070;2022-12-16T06:40:17;96732.47;;;-3.43;100.00
16030;BME280;34770;49.272;11.070;2022-12-16T06:43:01;96732.06;;;-3.31;100.00
16030;BME280;34770;49.272;11.070;2022-12-16T06:45:45;96730.16;;;-3.31;100.00
16030;BME280;34770;49.272;11.070;2022-12-16T06:48:29;96697.38;;;-3.45;100.00
16030;BME280;34770;49.272;11.070;2022-12-16T06:51:13;96737.25;;;-3.35;100.00
16030;BME280;34770;49.272;11.070;2022-12-16T06:53:57;96733.75;;;-3.35;100.00
16030;BME280;34770;49.272;11.070;2022-12-16T06:56:41;96714.88;;;-3.51;100.00
16030;BME280;34770;49.272;11.070;2022-12-16T06:59:24;96746.25;;;-3.34;100.00
16030;BME280;34770;49.272;11.070;2022-12-16T07:02:10;96740.34;;;-3.42;100.00
16030;BME280;34770;49.272;11.070;2022-12-16T07:04:54;96758.22;;;-3.35;100.00
16030;BME280;34770;49.272;11.070;2022-12-16T07:07:38;96761.97;;;-3.31;100.00
16030;BME280;34770;49.272;11.070;2022-12-16T07:10:25;96760.19;;;-3.41;100.00
16030;BME280;34770;49.272;11.070;2022-12-16T07:13:09;96766.41;;;-3.35;100.00
16030;BME280;34770;49.272;11.070;2022-12-16T07:15:53;96777.56;;;-3.37;100.00
16030;BME280;34770;49.272;11.070;2022-12-16T07:18:36;96778.44;;;-3.42;100.00
16030;BME280;34770;49.272;11.070;2022-12-16T07:21:20;96790.66;;;-3.39;100.00
16030;BME280;34770;49.272;11.070;2022-12-16T07:24:04;96794.81;;;-3.23;100.00
16030;BME280;34770;49.272;11.070;2022-12-16T07:26:48;96793.31;;;-3.34;100.00
16030;BME280;34770;49.272;11.070;2022-12-16T07:29:32;96757.31;;;-3.50;100.00
16030;BME280;34770;49.272;11.070;2022-12-16T07:32:16;96801.59;;;-3.20;100.00
16030;BME280;34770;49.272;11.070;2022-12-16T07:35:00;96808.66;;;-3.19;100.00
16030;BME280;34770;49.272;11.070;2022-12-16T07:37:44;96823.94;;;-3.23;100.00
16030;BME280;34770;49.272;11.070;2022-12-16T07:40:28;96825.75;;;-3.13;100.00
16030;BME280;34770;49.272;11.070;2022-12-16T07:43:12;96821.50;;;-3.00;100.00
16030;BME280;34770;49.272;11.070;2022-12-16T07:45:56;96839.34;;;-2.89;100.00
16030;BME280;34770;49.272;11.070;2022-12-16T07:48:40;96838.25;;;-2.88;100.00
16030;BME280;34770;49.272;11.070;2022-12-16T07:51:24;96842.47;;;-3.01;100.00
16030;BME280;34770;49.272;11.070;2022-12-16T07:54:07;96844.47;;;-2.88;100.00
16030;BME280;34770;49.272;11.070;2022-12-16T07:56:51;96844.00;;;-2.70;100.00
16030;BME280;34770;49.272;11.070;2022-12-16T07:59:35;96852.78;;;-2.74;100.00
16030;BME280;34770;49.272;11.070;2022-12-16T08:02:19;96864.25;;;-2.77;100.00
16030;BME280;34770;49.272;11.070;2022-12-16T08:05:03;96863.53;;;-2.63;100.00
16030;BME280;34770;49.272;11.070;2022-12-16T08:07:48;96862.34;;;-2.57;100.00
16030;BME280;34770;49.272;11.070;2022-12-16T08:10:32;96873.34;;;-2.43;100.00
16030;BME280;34770;49.272;11.070;2022-12-16T08:13:16;96880.78;;;-2.49;100.00
16030;BME280;34770;49.272;11.070;2022-12-16T08:16:00;96877.19;;;-2.44;100.00
16030;BME280;34770;49.272;11.070;2022-12-16T08:18:44;96871.94;;;-2.60;100.00
16030;BME280;34770;49.272;11.070;2022-12-16T08:21:28;96899.38;;;-2.32;100.00
16030;BME280;34770;49.272;11.070;2022-12-16T08:24:12;96892.59;;;-2.34;100.00
16030;BME280;34770;49.272;11.070;2022-12-16T08:26:55;96897.00;;;-2.38;100.00
16030;BME280;34770;49.272;11.070;2022-12-16T08:29:40;96894.66;;;-2.26;100.00
16030;BME280;34770;49.272;11.070;2022-12-16T08:32:23;96882.41;;;-2.48;100.00
16030;BME280;34770;49.272;11.070;2022-12-16T08:35:18;96907.09;;;-2.39;100.00
16030;BME280;34770;49.272;11.070;2022-12-16T08:38:02;96905.53;;;-2.45;100.00
16030;BME280;34770;49.272;11.070;2022-12-16T08:40:46;96903.25;;;-2.38;100.00
16030;BME280;34770;49.272;11.070;2022-12-16T08:43:32;96907.84;;;-2.33;100.00
16030;BME280;34770;49.272;11.070;2022-12-16T08:46:17;96911.22;;;-2.42;100.00
16030;BME280;34770;49.272;11.070;2022-12-16T08:49:01;96921.69;;;-2.30;100.00
16030;BME280;34770;49.272;11.070;2022-12-16T08:51:45;96907.53;;;-2.32;100.00
16030;BME280;34770;49.272;11.070;2022-12-16T08:54:30;96903.50;;;-2.15;100.00
16030;BME280;34770;49.272;11.070;2022-12-16T08:57:13;96917.00;;;-2.24;100.00
16030;BME280;34770;49.272;11.070;2022-12-16T08:59:57;96922.06;;;-2.17;100.00
16030;BME280;34770;49.272;11.070;2022-12-16T09:02:41;96905.44;;;-2.16;100.00
16030;BME280;34770;49.272;11.070;2022-12-16T09:05:25;96935.56;;;-2.07;100.00
16030;BME280;34770;49.272;11.070;2022-12-16T09:08:09;96941.53;;;-1.86;100.00
16030;BME280;34770;49.272;11.070;2022-12-16T09:10:53;96928.78;;;-1.71;100.00
16030;BME280;34770;49.272;11.070;2022-12-16T09:13:37;96938.59;;;-1.70;100.00
16030;BME280;34770;49.272;11.070;2022-12-16T09:16:21;96937.03;;;-1.57;100.00
16030;BME280;34770;49.272;11.070;2022-12-16T09:19:05;96951.34;;;-1.47;100.00
16030;BME280;34770;49.272;11.070;2022-12-16T09:21:49;96949.50;;;-1.18;100.00
16030;BME280;34770;49.272;11.070;2022-12-16T09:24:33;96952.44;;;-1.48;100.00
16030;BME280;34770;49.272;11.070;2022-12-16T09:27:17;96955.31;;;-1.25;100.00
16030;BME280;34770;49.272;11.070;2022-12-16T09:30:01;96955.69;;;-1.13;100.00
16030;BME280;34770;49.272;11.070;2022-12-16T09:32:44;96950.78;;;-0.83;100.00
16030;BME280;34770;49.272;11.070;2022-12-16T09:35:29;96944.31;;;-0.87;100.00
16030;BME280;34770;49.272;11.070;2022-12-16T09:38:13;96961.31;;;-0.62;100.00
16030;BME280;34770;49.272;11.070;2022-12-16T09:50:27;96979.81;;;-0.87;100.00
16030;BME280;34770;49.272;11.070;2022-12-16T09:53:14;96979.81;;;-0.87;100.00
16030;BME280;34770;49.272;11.070;2022-12-16T09:56:02;96979.81;;;-0.87;100.00
16030;BME280;34770;49.272;11.070;2022-12-16T09:58:57;96983.75;;;-0.93;100.00
16030;BME280;34770;49.272;11.070;2022-12-16T10:01:43;96988.75;;;-0.67;100.00
16030;BME280;34770;49.272;11.070;2022-12-16T10:04:27;96984.59;;;-0.65;100.00
16030;BME280;34770;49.272;11.070;2022-12-16T10:07:17;96988.88;;;-0.30;100.00
16030;BME280;34770;49.272;11.070;2022-12-16T10:10:24;96992.13;;;-0.01;100.00
16030;BME280;34770;49.272;11.070;2022-12-16T10:19:23;97004.63;;;-0.69;100.00
16030;BME280;34770;49.272;11.070;2022-12-16T10:25:23;97007.09;;;-1.01;100.00
16030;BME280;34770;49.272;11.070;2022-12-16T10:28:17;97009.69;;;-1.09;100.00
16030;BME280;34770;49.272;11.070;2022-12-16T10:31:13;97010.34;;;-1.32;100.00
16030;BME280;34770;49.272;11.070;2022-12-16T10:33:58;96997.88;;;-1.38;100.00
16030;BME280;34770;49.272;11.070;2022-12-16T10:36:43;97012.28;;;-0.99;100.00
16030;BME280;34770;49.272;11.070;2022-12-16T10:39:31;97011.38;;;-1.47;100.00
16030;BME280;34770;49.272;11.070;2022-12-16T10:45:16;97031.97;;;-1.02;100.00
16030;BME280;34770;49.272;11.070;2022-12-16T10:48:01;97029.56;;;-1.04;100.00
16030;BME280;34770;49.272;11.070;2022-12-16T10:50:45;97023.97;;;-1.13;100.00
16030;BME280;34770;49.272;11.070;2022-12-16T10:53:29;97027.91;;;-1.19;100.00
16030;BME280;34770;49.272;11.070;2022-12-16T10:59:39;97026.06;;;-0.90;100.00
16030;BME280;34770;49.272;11.070;2022-12-16T11:02:27;97023.44;;;-0.82;100.00
16030;BME280;34770;49.272;11.070;2022-12-16T11:08:24;97032.44;;;-0.48;100.00
16030;BME280;34770;49.272;11.070;2022-12-16T11:11:23;97034.25;;;-0.43;100.00
16030;BME280;34770;49.272;11.070;2022-12-16T11:14:25;97037.84;;;-0.62;100.00
16030;BME280;34770;49.272;11.070;2022-12-16T11:17:23;97040.72;;;-0.53;100.00
16030;BME280;34770;49.272;11.070;2022-12-16T11:23:22;97043.09;;;-0.66;100.00
16030;BME280;34770;49.272;11.070;2022-12-16T11:26:15;97039.47;;;-0.75;100.00
16030;BME280;34770;49.272;11.070;2022-12-16T11:29:15;97048.03;;;-0.82;100.00
16030;BME280;34770;49.272;11.070;2022-12-16T11:34:58;97029.88;;;-1.05;100.00
16030;BME280;34770;49.272;11.070;2022-12-16T11:37:43;97038.22;;;-0.83;100.00
16030;BME280;34770;49.272;11.070;2022-12-16T11:40:30;97047.69;;;-0.94;100.00
16030;BME280;34770;49.272;11.070;2022-12-16T11:43:16;97050.53;;;-0.99;100.00
16030;BME280;34770;49.272;11.070;2022-12-16T11:46:05;97041.13;;;-0.93;100.00
16030;BME280;34770;49.272;11.070;2022-12-16T11:48:58;97049.44;;;-0.84;100.00
16030;BME280;34770;49.272;11.070;2022-12-16T11:51:56;97047.00;;;-1.19;100.00
16030;BME280;34770;49.272;11.070;2022-12-16T11:54:56;97061.38;;;-1.13;100.00
16030;BME280;34770;49.272;11.070;2022-12-16T11:57:47;97059.91;;;-1.05;100.00
16030;BME280;34770;49.272;11.070;2022-12-16T12:00:40;97051.06;;;-1.16;100.00
16030;BME280;34770;49.272;11.070;2022-12-16T12:03:27;97078.16;;;-1.20;100.00
16030;BME280;34770;49.272;11.070;2022-12-16T12:06:31;97050.31;;;-1.41;100.00
16030;BME280;34770;49.272;11.070;2022-12-16T12:09:22;97074.97;;;-1.46;100.00
16030;BME280;34770;49.272;11.070;2022-12-16T12:18:09;97079.75;;;-1.57;100.00
16030;BME280;34770;49.272;11.070;2022-12-16T12:21:09;97082.94;;;-1.50;100.00
16030;BME280;34770;49.272;11.070;2022-12-16T12:27:59;97081.47;;;-1.61;100.00
16030;BME280;34770;49.272;11.070;2022-12-16T12:31:14;97091.56;;;-1.86;100.00
16030;BME280;34770;49.272;11.070;2022-12-16T12:34:04;97100.13;;;-1.93;100.00
16030;BME280;34770;49.272;11.070;2022-12-16T12:37:24;97100.28;;;-2.08;100.00
16030;BME280;34770;49.272;11.070;2022-12-16T12:47:03;97118.91;;;-1.91;100.00
16030;BME280;34770;49.272;11.070;2022-12-16T12:49:42;97119.03;;;-2.01;100.00
16030;BME280;34770;49.272;11.070;2022-12-16T12:56:25;97133.00;;;-2.08;100.00
16030;BME280;34770;49.272;11.070;2022-12-16T12:59:24;97126.09;;;-2.00;100.00
16030;BME280;34770;49.272;11.070;2022-12-16T13:02:21;97136.38;;;-2.16;100.00
16030;BME280;34770;49.272;11.070;2022-12-16T13:05:11;97131.31;;;-2.28;100.00
16030;BME280;34770;49.272;11.070;2022-12-16T13:11:18;97145.13;;;-2.19;100.00
16030;BME280;34770;49.272;11.070;2022-12-16T13:19:59;97130.06;;;-2.12;100.00
16030;BME280;34770;49.272;11.070;2022-12-16T13:22:44;97123.34;;;-2.25;100.00
16030;BME280;34770;49.272;11.070;2022-12-16T13:28:30;97146.97;;;-2.15;100.00
16030;BME280;34770;49.272;11.070;2022-12-16T13:31:14;97157.38;;;-2.17;100.00
16030;BME280;34770;49.272;11.070;2022-12-16T13:34:06;97166.03;;;-2.10;100.00
16030;BME280;34770;49.272;11.070;2022-12-16T13:37:04;97156.59;;;-2.22;100.00
16030;BME280;34770;49.272;11.070;2022-12-16T13:40:25;97176.13;;;-2.39;100.00
16030;BME280;34770;49.272;11.070;2022-12-16T13:43:42;97182.66;;;-2.41;100.00
16030;BME280;34770;49.272;11.070;2022-12-16T13:46:46;97180.22;;;-2.42;100.00
16030;BME280;34770;49.272;11.070;2022-12-16T13:49:44;97193.63;;;-2.46;100.00
16030;BME280;34770;49.272;11.070;2022-12-16T13:52:50;97190.00;;;-2.36;100.00
16030;BME280;34770;49.272;11.070;2022-12-16T13:55:56;97199.69;;;-2.25;100.00
16030;BME280;34770;49.272;11.070;2022-12-16T13:58:53;97194.84;;;-2.33;100.00
16030;BME280;34770;49.272;11.070;2022-12-16T14:01:48;97201.56;;;-2.49;100.00
16030;BME280;34770;49.272;11.070;2022-12-16T14:04:42;97211.31;;;-2.43;100.00
16030;BME280;34770;49.272;11.070;2022-12-16T14:07:29;97208.97;;;-2.26;100.00
16030;BME280;34770;49.272;11.070;2022-12-16T14:10:41;97217.72;;;-2.29;100.00
16030;BME280;34770;49.272;11.070;2022-12-16T14:19:13;97224.41;;;-2.45;100.00
16030;BME280;34770;49.272;11.070;2022-12-16T14:25:24;97242.13;;;-2.48;100.00
16030;BME280;34770;49.272;11.070;2022-12-16T14:31:21;97270.13;;;-2.37;100.00
16030;BME280;34770;49.272;11.070;2022-12-16T14:34:19;97257.63;;;-2.43;100.00
16030;BME280;34770;49.272;11.070;2022-12-16T14:39:56;97264.81;;;-2.58;100.00
16030;BME280;34770;49.272;11.070;2022-12-16T14:42:40;97277.19;;;-2.76;100.00
16030;BME280;34770;49.272;11.070;2022-12-16T14:45:32;97261.75;;;-2.91;100.00
16030;BME280;34770;49.272;11.070;2022-12-16T14:51:46;97288.63;;;-2.74;100.00
16030;BME280;34770;49.272;11.070;2022-12-16T14:54:41;97289.69;;;-2.69;100.00
16030;BME280;34770;49.272;11.070;2022-12-16T14:57:27;97284.34;;;-2.90;100.00
16030;BME280;34770;49.272;11.070;2022-12-16T15:00:18;97287.56;;;-2.83;100.00
16030;BME280;34770;49.272;11.070;2022-12-16T15:06:11;97293.59;;;-2.91;100.00
16030;BME280;34770;49.272;11.070;2022-12-16T15:09:02;97292.00;;;-2.97;100.00
16030;BME280;34770;49.272;11.070;2022-12-16T15:11:49;97302.91;;;-2.97;100.00
16030;BME280;34770;49.272;11.070;2022-12-16T15:14:37;97299.13;;;-3.01;100.00
16030;BME280;34770;49.272;11.070;2022-12-16T15:20:20;97318.75;;;-3.10;100.00
16030;BME280;34770;49.272;11.070;2022-12-16T15:23:18;97324.72;;;-3.08;100.00
16030;BME280;34770;49.272;11.070;2022-12-16T15:26:04;97329.59;;;-3.05;100.00
16030;BME280;34770;49.272;11.070;2022-12-16T15:28:48;97324.78;;;-3.23;100.00
16030;BME280;34770;49.272;11.070;2022-12-16T15:31:37;97312.25;;;-3.24;100.00
16030;BME280;34770;49.272;11.070;2022-12-16T15:34:26;97331.78;;;-3.01;100.00
16030;BME280;34770;49.272;11.070;2022-12-16T15:39:55;97345.44;;;-3.07;100.00
16030;BME280;34770;49.272;11.070;2022-12-16T15:42:39;97340.25;;;-3.03;100.00
16030;BME280;34770;49.272;11.070;2022-12-16T15:45:29;97361.22;;;-3.09;100.00